Grizzly Flats, California
Current Conditions -  °F | °C
As of 7:35 AM on Friday 19 Dec 2014 (Local Time) from KPVF Reporting Station
Overcast Overcast  
Wind Chill: 42°   Ceiling: 3900
Heat Index: 48°   Visibility: 10mi
Dew Point: 36°   Wind: 15mph
Humidity: 62%   Direction: 160°SSE
Pressure: 30.13"   Gusts: 20mph
Location:  38.63°N, 120.55°W
Report Text: KPVF 191535Z AUTO 16013G17KT 10SM OVC039 09/02 A3013 RMK AO1
Loading
Personal Weather Stations






























Interactive Weather Map New forecast layout! Learn more

10-Day Weather Forecast

Advertisements
Track Severe Weather on mobile